createdAt,value
2024-03-16T00:00:47.090Z,0.30
2024-03-16T00:03:14.521Z,0.20
2024-03-16T00:05:41.932Z,0.10
2024-03-16T00:08:09.348Z,0.20
2024-03-16T00:10:36.617Z,0.20
2024-03-16T00:13:04.834Z,0.15
2024-03-16T00:15:32.383Z,0.30
2024-03-16T00:18:01.001Z,0.30
2024-03-16T00:20:28.348Z,0.28
2024-03-16T00:22:55.589Z,0.17
2024-03-16T00:25:22.892Z,0.20
2024-03-16T00:27:53.842Z,0.30
2024-03-16T00:30:21.416Z,0.20
2024-03-16T00:32:48.710Z,0.20
2024-03-16T00:35:16.043Z,0.20
2024-03-16T00:37:43.657Z,0.10
2024-03-16T00:40:11.438Z,0.20
2024-03-16T00:42:38.825Z,0.10
2024-03-16T00:45:06.613Z,0.30
2024-03-16T00:47:33.982Z,0.22
2024-03-16T00:50:01.912Z,0.15
2024-03-16T00:52:29.170Z,0.20
2024-03-16T00:54:57.661Z,0.30
2024-03-16T00:57:25.269Z,0.43
2024-03-16T00:59:52.715Z,0.28
2024-03-16T01:02:19.999Z,0.32
2024-03-16T01:04:47.342Z,0.25
2024-03-16T01:07:16.199Z,0.20
2024-03-16T01:09:43.609Z,0.30
2024-03-16T01:12:10.912Z,0.20
2024-03-16T01:14:38.164Z,0.40
2024-03-16T01:17:05.505Z,0.28
2024-03-16T01:19:32.960Z,0.20
2024-03-16T01:22:00.296Z,0.40
2024-03-16T01:24:27.920Z,0.50
2024-03-16T01:26:55.196Z,0.20
2024-03-16T01:29:23.218Z,0.30
2024-03-16T01:31:50.387Z,0.20
2024-03-16T01:34:17.706Z,0.30
2024-03-16T01:36:45.022Z,0.35
2024-03-16T01:39:13.399Z,0.30
2024-03-16T01:41:42.419Z,0.38
2024-03-16T01:46:42.629Z,0.25
2024-03-16T01:49:10.679Z,0.15
2024-03-16T01:51:39.772Z,0.30
2024-03-16T01:54:07.524Z,0.40
2024-03-16T01:56:38.124Z,0.40
2024-03-16T01:59:05.381Z,0.60
2024-03-16T02:01:32.880Z,0.65
2024-03-16T02:04:00.467Z,0.82
2024-03-16T02:06:29.790Z,0.47
2024-03-16T02:08:57.996Z,0.50
2024-03-16T02:11:25.448Z,0.55
2024-03-16T02:13:52.759Z,0.68
2024-03-16T02:16:20.033Z,0.60
2024-03-16T02:18:47.357Z,0.68
2024-03-16T02:21:15.188Z,0.73
2024-03-16T02:23:42.511Z,0.63
2024-03-16T02:26:09.948Z,0.70
2024-03-16T02:28:37.330Z,0.40
2024-03-16T02:31:06.227Z,0.70
2024-03-16T02:33:33.710Z,0.63
2024-03-16T02:36:01.035Z,0.55
2024-03-16T02:38:29.427Z,0.70
2024-03-16T02:40:56.693Z,0.40
2024-03-16T02:43:24.738Z,0.60
2024-03-16T02:45:53.444Z,0.63
2024-03-16T02:48:20.832Z,0.50
2024-03-16T02:50:48.186Z,0.50
2024-03-16T02:53:15.588Z,0.85
2024-03-16T02:55:43.131Z,0.80
2024-03-16T02:58:11.122Z,0.35
2024-03-16T03:00:38.404Z,0.70
2024-03-16T03:03:08.191Z,0.60
2024-03-16T03:05:35.894Z,0.50
2024-03-16T03:08:05.665Z,0.75
2024-03-16T03:10:33.800Z,0.68
2024-03-16T03:13:02.813Z,0.85
2024-03-16T03:17:58.227Z,0.60
2024-03-16T03:20:25.891Z,0.40
2024-03-16T03:22:53.559Z,0.30
2024-03-16T03:25:23.028Z,0.50
2024-03-16T03:27:50.836Z,0.55
2024-03-16T03:30:18.470Z,0.73
2024-03-16T03:32:46.119Z,0.77
2024-03-16T03:35:13.790Z,0.70
2024-03-16T03:37:41.377Z,0.32
2024-03-16T03:40:09.330Z,0.40
2024-03-16T03:42:40.792Z,0.70
2024-03-16T03:45:38.790Z,0.60
2024-03-16T03:48:26.311Z,0.43
2024-03-16T03:50:54.980Z,0.70
2024-03-16T03:53:24.831Z,0.57
2024-03-16T03:55:52.654Z,0.55
2024-03-16T03:58:21.071Z,0.47
2024-03-16T04:00:49.347Z,0.70
2024-03-16T04:03:17.560Z,0.45
2024-03-16T04:05:45.190Z,0.75
2024-03-16T04:08:12.898Z,0.40
2024-03-16T04:10:40.637Z,0.80
2024-03-16T04:13:08.313Z,0.45
2024-03-16T04:15:35.953Z,0.55
2024-03-16T04:18:03.634Z,0.65
2024-03-16T04:20:31.285Z,0.45
2024-03-16T04:22:58.919Z,0.85
2024-03-16T04:25:26.542Z,0.43
2024-03-16T04:27:54.174Z,0.40
2024-03-16T04:30:22.081Z,0.50
2024-03-16T04:32:49.818Z,0.63
2024-03-16T04:35:17.523Z,0.70
2024-03-16T04:37:46.077Z,0.55
2024-03-16T04:40:13.794Z,0.50
2024-03-16T04:42:42.740Z,0.90
2024-03-16T04:45:10.482Z,0.70
2024-03-16T04:47:38.127Z,0.70
2024-03-16T04:50:06.731Z,0.70
2024-03-16T04:52:34.359Z,1.05
2024-03-16T04:55:02.025Z,0.80
2024-03-16T04:57:29.766Z,0.60
2024-03-16T04:59:57.385Z,0.93
2024-03-16T05:02:24.997Z,0.50
2024-03-16T05:04:52.617Z,0.98
2024-03-16T05:07:21.552Z,0.60
2024-03-16T05:09:51.066Z,0.50
2024-03-16T05:12:19.596Z,0.47
2024-03-16T05:14:47.270Z,0.68
2024-03-16T05:17:14.868Z,0.85
2024-03-16T05:19:42.511Z,0.57
2024-03-16T05:22:10.203Z,0.50
2024-03-16T05:24:38.262Z,0.40
2024-03-16T05:27:08.796Z,0.80
2024-03-16T05:29:36.451Z,0.77
2024-03-16T05:32:04.451Z,0.35
2024-03-16T05:34:32.056Z,1.05
2024-03-16T05:36:59.770Z,1.02
2024-03-16T05:39:27.514Z,1.00
2024-03-16T05:41:55.421Z,0.80
2024-03-16T05:44:23.055Z,0.60
2024-03-16T05:46:50.653Z,0.80
2024-03-16T05:49:18.287Z,0.80
2024-03-16T05:51:45.941Z,0.70
2024-03-16T05:54:13.572Z,1.00
2024-03-16T05:56:41.174Z,0.70
2024-03-16T05:59:12.386Z,1.13
2024-03-16T06:01:40.141Z,0.80
2024-03-16T06:04:07.931Z,0.70
2024-03-16T06:06:35.764Z,0.55
2024-03-16T06:09:06.036Z,0.65
2024-03-16T06:11:35.357Z,0.70
2024-03-16T06:14:03.727Z,0.70
2024-03-16T06:16:31.364Z,0.85
2024-03-16T06:19:00.347Z,0.57
2024-03-16T06:21:32.320Z,0.93
2024-03-16T06:24:00.059Z,0.40
2024-03-16T06:26:29.353Z,0.40
2024-03-16T06:29:06.196Z,0.77
2024-03-16T06:31:35.561Z,0.70
2024-03-16T06:34:06.030Z,0.60
2024-03-16T06:36:34.301Z,0.80
2024-03-16T06:39:02.037Z,0.60
2024-03-16T06:41:29.682Z,0.50
2024-03-16T06:43:57.371Z,0.75
2024-03-16T06:46:25.006Z,0.50
2024-03-16T06:48:52.718Z,0.50
2024-03-16T06:51:20.478Z,0.63
2024-03-16T06:53:51.363Z,0.50
2024-03-16T06:56:20.319Z,0.60
2024-03-16T07:01:15.847Z,0.77
2024-03-16T07:03:43.767Z,0.55
2024-03-16T07:06:11.712Z,0.50
2024-03-16T07:08:39.495Z,0.60
2024-03-16T07:11:07.536Z,0.80
2024-03-16T07:13:36.456Z,0.50
2024-03-16T07:16:04.547Z,0.35
2024-03-16T07:18:34.288Z,0.60
2024-03-16T07:21:02.196Z,0.50
2024-03-16T07:23:29.972Z,0.30
2024-03-16T07:25:59.472Z,0.60
2024-03-16T07:28:27.134Z,0.43
2024-03-16T07:30:58.205Z,0.40
2024-03-16T07:33:26.169Z,0.50
2024-03-16T07:35:53.770Z,0.40
2024-03-16T07:38:21.464Z,0.40
2024-03-16T07:40:49.176Z,0.35
2024-03-16T07:43:16.840Z,0.50
2024-03-16T07:45:49.819Z,0.40
2024-03-16T07:48:17.740Z,0.55
2024-03-16T07:50:45.416Z,0.65
2024-03-16T07:53:13.042Z,0.52
2024-03-16T07:55:40.694Z,0.40
2024-03-16T07:58:09.190Z,0.47
2024-03-16T08:00:37.155Z,0.40
2024-03-16T08:03:05.082Z,0.32
2024-03-16T08:05:33.505Z,0.55
2024-03-16T08:08:03.488Z,0.73
2024-03-16T08:10:31.183Z,0.70
2024-03-16T08:12:59.091Z,0.45
2024-03-16T08:15:26.729Z,0.75
2024-03-16T08:17:57.510Z,0.50
2024-03-16T08:20:25.379Z,0.80
2024-03-16T08:22:56.501Z,0.40
2024-03-16T08:25:24.277Z,0.68
2024-03-16T08:27:51.999Z,0.63
2024-03-16T08:30:19.736Z,0.77
2024-03-16T08:32:47.545Z,0.60
2024-03-16T08:35:15.431Z,0.52
2024-03-16T08:37:43.023Z,0.60
2024-03-16T08:40:14.121Z,0.73
2024-03-16T08:42:42.365Z,0.98
2024-03-16T08:45:11.218Z,0.65
2024-03-16T08:50:07.185Z,0.57
2024-03-16T08:52:38.099Z,0.88
2024-03-16T08:55:06.866Z,1.00
2024-03-16T08:57:34.838Z,0.73
2024-03-16T09:00:05.521Z,0.60
2024-03-16T09:02:33.261Z,0.70
2024-03-16T09:05:01.957Z,0.63
2024-03-16T09:07:30.061Z,0.88
2024-03-16T09:09:59.099Z,0.70
2024-03-16T09:12:27.413Z,0.73
2024-03-16T09:14:56.907Z,0.80
2024-03-16T09:17:24.558Z,1.02
2024-03-16T09:19:52.860Z,0.68
2024-03-16T09:22:20.621Z,0.82
2024-03-16T09:24:48.684Z,1.00
2024-03-16T09:27:16.421Z,0.77
2024-03-16T09:29:45.046Z,1.00
2024-03-16T09:32:14.814Z,0.90
2024-03-16T09:34:42.597Z,0.85
2024-03-16T09:37:10.788Z,1.05
2024-03-16T09:39:38.683Z,0.77
2024-03-16T09:42:10.716Z,0.63
